Time;durP1;ratioP1;P1;durP2;ratioP2;P2;SDS_P1;SDS_P2;PMS_P1;PMS_P2;Temp;Humidity;BMP_temperature;BMP_pressure;BME280_temperature;BME280_humidity;BME280_pressure;Samples;Min_cycle;Max_cycle;Signal;HPM_P1;HPM_P2
2022/01/30 00:00:43;;;;;;;11.80;3.78;;;;;;;5.30;100.00;98597.63;5033804;28;20018;-79
2022/01/30 00:03:09;;;;;;;9.32;3.58;;;;;;;5.28;100.00;98603.75;5016768;28;20025;-80
2022/01/30 00:05:34;;;;;;;12.18;3.67;;;;;;;5.17;100.00;98592.13;5034721;28;20028;-79
2022/01/30 00:08:00;;;;;;;11.82;3.50;;;;;;;5.10;100.00;98577.81;5034683;28;20611;-79
2022/01/30 00:10:26;;;;;;;9.35;3.40;;;;;;;5.03;100.00;98597.03;5017000;28;20152;-79
2022/01/30 00:12:57;;;;;;;13.48;4.00;;;;;;;5.04;100.00;98590.97;5016582;28;20032;-79
2022/01/30 00:15:35;;;;;;;10.13;3.80;;;;;;;5.20;100.00;98594.59;5034504;28;20041;-79
2022/01/30 00:18:13;;;;;;;14.00;3.95;;;;;;;5.22;100.00;98603.13;5016624;28;20025;-79
2022/01/30 00:20:40;;;;;;;8.80;3.28;;;;;;;5.06;100.00;98578.00;5032893;28;20116;-79
2022/01/30 00:25:59;;;;;;;8.23;3.13;;;;;;;5.32;100.00;98601.00;5033984;28;20064;-79
2022/01/30 00:28:25;;;;;;;9.68;2.63;;;;;;;5.28;100.00;98586.53;5033417;28;20036;-79
2022/01/30 00:30:51;;;;;;;14.98;3.15;;;;;;;5.44;100.00;98603.06;5016339;28;20025;-79
2022/01/30 00:33:17;;;;;;;13.30;2.95;;;;;;;5.43;100.00;98579.84;5016493;28;20117;-79
2022/01/30 00:35:42;;;;;;;9.88;2.92;;;;;;;5.52;100.00;98605.31;5015883;28;20104;-79
2022/01/30 00:38:14;;;;;;;13.38;3.30;;;;;;;5.44;100.00;98603.06;5016346;28;20030;-79
2022/01/30 00:40:44;;;;;;;8.80;3.42;;;;;;;5.51;100.00;98616.53;5016115;28;20056;-79
2022/01/30 00:43:10;;;;;;;14.65;3.50;;;;;;;5.63;100.00;98677.16;5033842;28;20060;-79
2022/01/30 00:45:35;;;;;;;9.23;3.10;;;;;;;5.56;100.00;98657.66;5016011;28;20064;-79
2022/01/30 00:48:01;;;;;;;10.18;3.08;;;;;;;5.45;100.00;98655.53;5034283;28;20489;-79
2022/01/30 00:50:27;;;;;;;7.53;3.30;;;;;;;5.29;100.00;98628.66;5015936;28;20553;-79
2022/01/30 00:52:55;;;;;;;14.98;3.78;;;;;;;5.34;100.00;98661.13;5015743;28;20041;-79
2022/01/30 00:55:21;;;;;;;11.90;3.25;;;;;;;5.26;100.00;98652.84;5033579;28;20446;-79
2022/01/30 00:57:47;;;;;;;11.30;3.28;;;;;;;5.28;100.00;98629.56;5015862;28;20350;-79
2022/01/30 01:00:15;;;;;;;11.30;3.45;;;;;;;5.25;100.00;98626.22;5033645;28;20032;-79
2022/01/30 01:02:41;;;;;;;10.48;3.28;;;;;;;5.17;100.00;98605.03;5033337;28;20033;-79
2022/01/30 01:05:07;;;;;;;11.02;3.70;;;;;;;5.21;100.00;98601.41;5015703;28;20029;-79
2022/01/30 01:07:35;;;;;;;9.75;3.28;;;;;;;5.30;100.00;98604.53;5031796;28;20076;-79
2022/01/30 01:10:10;;;;;;;17.38;3.65;;;;;;;5.30;100.00;98623.44;5015319;28;20083;-79
2022/01/30 01:13:09;;;;;;;9.13;2.78;;;;;;;5.37;100.00;98613.69;5032701;28;20017;-79
2022/01/30 01:23:50;;;;;;;11.07;3.63;;;;;;;5.39;100.00;98586.06;5033048;28;20125;-79
2022/01/30 01:26:17;;;;;;;13.90;3.45;;;;;;;5.43;100.00;98611.69;5033159;28;20029;-79
2022/01/30 01:28:42;;;;;;;12.50;3.53;;;;;;;5.36;100.00;98612.03;5015064;28;20029;-79
2022/01/30 01:31:08;;;;;;;15.63;3.20;;;;;;;5.36;99.68;98587.03;5033175;28;20029;-79
2022/01/30 01:33:47;;;;;;;8.13;2.40;;;;;;;5.44;98.45;98605.63;5033339;28;20108;-79
2022/01/30 01:36:13;;;;;;;11.38;3.33;;;;;;;5.40;99.41;98590.34;5015203;28;20037;-79
2022/01/30 01:38:38;;;;;;;14.65;4.30;;;;;;;5.43;98.22;98596.19;5032598;28;20030;-79
2022/01/30 01:41:04;;;;;;;10.00;3.80;;;;;;;5.44;97.51;98605.63;5032887;28;20493;-79
2022/01/30 01:43:30;;;;;;;16.80;4.05;;;;;;;5.38;97.57;98582.63;5010268;28;20038;-79
2022/01/30 01:45:58;;;;;;;13.10;3.53;;;;;;;5.45;96.36;98584.06;5010320;28;20073;-79
2022/01/30 01:48:23;;;;;;;9.85;3.80;;;;;;;5.36;95.85;98588.78;5010506;28;20100;-79
2022/01/30 01:50:53;;;;;;;7.32;2.72;;;;;;;5.43;95.71;98574.69;5010127;28;20030;-79
2022/01/30 01:53:25;;;;;;;8.10;3.03;;;;;;;5.34;95.39;98570.75;5010303;28;20514;-79
2022/01/30 01:55:51;;;;;;;11.93;3.20;;;;;;;5.40;94.54;98580.00;5009952;28;20046;-79
2022/01/30 01:58:17;;;;;;;14.52;3.28;;;;;;;5.36;94.84;98579.28;4993777;28;20095;-79
2022/01/30 02:00:43;;;;;;;9.32;3.20;;;;;;;5.32;94.71;98582.06;4993554;28;20045;-79
2022/01/30 02:03:09;;;;;;;9.20;3.03;;;;;;;5.34;95.29;98557.03;5010009;28;20637;-79
2022/01/30 02:05:36;;;;;;;9.68;2.95;;;;;;;5.39;94.19;98570.56;5010256;28;20454;-79
2022/01/30 02:26:47;;;;;;;12.43;3.00;;;;;;;5.35;93.05;98531.16;5050417;28;20036;-79
2022/01/30 02:29:13;;;;;;;9.30;2.90;;;;;;;5.38;92.88;98531.00;5050603;28;20032;-79
2022/01/30 02:31:41;;;;;;;11.48;3.22;;;;;;;5.39;92.28;98544.75;5052007;28;20078;-79
2022/01/30 02:34:08;;;;;;;11.63;3.40;;;;;;;5.39;93.52;98565.41;5050962;28;20482;-79
2022/01/30 02:36:50;;;;;;;10.70;3.38;;;;;;;5.37;94.04;98568.06;5052069;28;20467;-79
2022/01/30 02:39:16;;;;;;;13.13;3.17;;;;;;;5.32;93.66;98549.34;5051872;28;20036;-79
2022/01/30 02:41:42;;;;;;;9.00;3.22;;;;;;;5.31;93.70;98534.78;5050315;28;20477;-79
2022/01/30 02:46:42;;;;;;;14.68;3.47;;;;;;;5.24;92.52;98518.69;5051934;28;20043;-78
2022/01/30 02:49:28;;;;;;;15.38;3.67;;;;;;;5.31;92.53;98516.69;5050544;28;20029;-79
2022/01/30 02:52:04;;;;;;;15.73;4.10;;;;;;;5.22;91.32;98536.00;5050210;28;20022;-79
2022/01/30 02:54:30;;;;;;;10.98;3.47;;;;;;;5.32;91.59;98527.84;5052010;28;20099;-79
2022/01/30 02:56:56;;;;;;;12.23;3.88;;;;;;;5.24;91.98;98521.28;5050332;28;20021;-79
2022/01/30 02:59:22;;;;;;;16.10;4.25;;;;;;;5.24;92.78;98513.53;5050499;28;20025;-79
2022/01/30 03:01:48;;;;;;;10.70;2.97;;;;;;;5.29;91.83;98515.91;5051516;28;20029;-79
2022/01/30 03:04:14;;;;;;;15.27;3.75;;;;;;;5.22;92.55;98502.44;5050339;28;20487;-79
2022/01/30 03:06:40;;;;;;;11.65;3.42;;;;;;;5.25;93.01;98530.69;5050182;28;20029;-79
2022/01/30 03:09:07;;;;;;;12.60;3.75;;;;;;;5.06;92.58;98488.53;5033855;28;20124;-79
2022/01/30 03:11:33;;;;;;;12.60;3.53;;;;;;;5.15;92.97;98497.59;5014163;28;20030;-79
2022/01/30 03:13:59;;;;;;;9.90;2.58;;;;;;;5.24;92.74;98528.19;5031436;28;20032;-79
2022/01/30 03:16:25;;;;;;;10.85;3.00;;;;;;;5.12;92.39;98488.25;5013968;28;20030;-79
2022/01/30 03:18:52;;;;;;;9.90;2.80;;;;;;;5.18;92.51;98502.63;5031324;28;20358;-79
2022/01/30 03:21:18;;;;;;;9.90;3.30;;;;;;;5.16;92.12;98501.84;5013665;28;20030;-79
2022/01/30 03:23:44;;;;;;;10.20;3.28;;;;;;;5.22;91.66;98509.31;5013614;28;20033;-79
2022/01/30 03:26:10;;;;;;;13.75;3.55;;;;;;;5.22;91.72;98506.75;4989608;28;20427;-79
2022/01/30 03:28:38;;;;;;;8.93;2.90;;;;;;;5.21;91.10;98500.75;4989794;28;20035;-79
2022/01/30 03:31:06;;;;;;;9.30;2.97;;;;;;;5.16;91.42;98496.69;4989578;28;20034;-79
2022/01/30 03:33:32;;;;;;;11.55;2.95;;;;;;;5.16;91.29;98481.22;4989785;28;20035;-79
2022/01/30 03:35:58;;;;;;;12.02;3.15;;;;;;;5.21;90.97;98507.66;4992702;28;20035;-79
2022/01/30 03:38:26;;;;;;;10.80;3.55;;;;;;;5.23;91.20;98513.59;4993340;28;20042;-79
2022/01/30 03:40:52;;;;;;;8.38;2.88;;;;;;;5.14;90.90;98480.41;4976692;28;20706;-79
2022/01/30 03:43:18;;;;;;;11.18;3.50;;;;;;;5.16;90.48;98500.13;4993153;28;20042;-79
2022/01/30 03:45:44;;;;;;;10.50;3.50;;;;;;;5.23;91.00;98505.88;4976790;28;20481;-79
2022/01/30 03:48:10;;;;;;;8.48;3.08;;;;;;;5.28;90.88;98500.50;4976910;28;20375;-79
2022/01/30 03:50:36;;;;;;;8.10;2.72;;;;;;;5.18;91.11;98485.41;4993160;28;20034;-79
2022/01/30 03:53:02;;;;;;;12.70;3.85;;;;;;;5.26;91.58;98501.38;4992810;28;20035;-79
2022/01/30 03:55:27;;;;;;;11.68;3.42;;;;;;;5.21;91.07;98492.16;4993407;28;20041;-79
2022/01/30 03:57:53;;;;;;;11.52;3.28;;;;;;;5.23;91.21;98505.88;5008854;28;20037;-79
2022/01/30 04:00:19;;;;;;;10.23;3.25;;;;;;;5.22;90.90;98491.25;5017104;28;20108;-79
2022/01/30 04:02:44;;;;;;;10.40;3.35;;;;;;;5.23;91.38;98503.28;5034415;28;20469;-79
2022/01/30 04:05:10;;;;;;;10.18;3.42;;;;;;;5.22;91.62;98497.28;5016813;28;20112;-79
2022/01/30 04:07:36;;;;;;;10.50;4.25;;;;;;;5.18;91.36;98482.84;5034332;28;20055;-79
2022/01/30 04:10:04;;;;;;;11.45;3.20;;;;;;;5.20;90.77;98496.50;5016728;28;20372;-79
2022/01/30 04:12:29;;;;;;;10.30;3.53;;;;;;;5.18;90.35;98467.34;5034481;28;20449;-79
2022/01/30 04:14:55;;;;;;;11.63;3.55;;;;;;;5.24;90.42;98450.75;5016405;28;20037;-79
2022/01/30 04:17:21;;;;;;;12.88;3.05;;;;;;;5.17;90.49;98464.81;5016516;28;20030;-79
2022/01/30 04:19:47;;;;;;;11.82;3.22;;;;;;;5.10;91.03;98435.00;5016530;28;20116;-79
2022/01/30 04:22:13;;;;;;;11.93;3.20;;;;;;;5.21;91.03;98448.28;5016727;28;20041;-79
2022/01/30 04:24:38;;;;;;;18.80;4.07;;;;;;;5.10;90.76;98428.13;5034371;28;20026;-79
2022/01/30 04:27:04;;;;;;;8.07;2.97;;;;;;;5.18;90.90;98451.00;5034179;28;20041;-79
2022/01/30 04:29:30;;;;;;;9.48;3.20;;;;;;;5.17;91.06;98444.16;5034136;28;20029;-79
2022/01/30 04:31:55;;;;;;;10.82;2.83;;;;;;;5.12;91.57;98444.38;5015964;28;20030;-79
2022/01/30 04:34:22;;;;;;;11.38;3.35;;;;;;;5.13;91.58;98460.69;5016592;28;20029;-79
2022/01/30 04:37:04;;;;;;;9.23;2.97;;;;;;;5.08;91.52;98447.97;5016181;28;20362;-79
2022/01/30 04:58:26;;;;;;;;;;;;;;;5.13;92.23;98482.16;5034061;28;20427;-79
2022/01/30 05:01:06;;;;;;;16.75;4.18;;;;;;;5.09;92.05;98488.38;5033504;28;19909;-79
2022/01/30 05:06:13;;;;;;;10.13;2.90;;;;;;;5.10;92.33;98482.31;5033344;28;20052;-79
2022/01/30 05:08:39;;;;;;;11.00;3.40;;;;;;;5.12;92.43;98470.19;5040856;28;20041;-79
2022/01/30 05:11:07;;;;;;;15.15;3.53;;;;;;;5.11;92.02;98459.94;5051849;28;20035;-79
2022/01/30 05:13:36;;;;;;;10.65;3.40;;;;;;;5.09;92.00;98451.41;5051947;28;20453;-79
2022/01/30 05:16:02;;;;;;;10.52;3.55;;;;;;;5.09;92.40;98462.56;5051578;28;20033;-79
2022/01/30 05:18:29;;;;;;;8.80;3.15;;;;;;;5.07;92.44;98456.63;5051999;28;20029;-79
2022/01/30 05:20:55;;;;;;;11.38;3.17;;;;;;;5.03;92.38;98451.69;5052984;28;20032;-79
2022/01/30 05:23:22;;;;;;;9.38;3.42;;;;;;;4.98;91.97;98421.75;5051754;28;20414;-79
2022/01/30 05:25:48;;;;;;;10.77;2.80;;;;;;;4.98;92.44;98421.75;5053130;28;20028;-79
2022/01/30 05:28:15;;;;;;;12.43;3.15;;;;;;;4.91;92.71;98411.75;5051616;28;20136;-79
2022/01/30 05:30:42;;;;;;;8.30;3.13;;;;;;;5.00;92.76;98398.44;5051864;28;20106;-79
2022/01/30 05:33:08;;;;;;;10.05;3.45;;;;;;;4.98;93.10;98403.69;5051435;28;20061;-79
2022/01/30 05:35:33;;;;;;;13.48;3.17;;;;;;;4.98;93.18;98377.88;5052949;28;20064;-79
2022/01/30 05:37:59;;;;;;;10.02;3.33;;;;;;;4.95;93.65;98379.75;5052668;28;20029;-79
2022/01/30 05:40:25;;;;;;;8.18;3.33;;;;;;;4.96;93.82;98376.25;5052728;28;20068;-79
2022/01/30 05:42:51;;;;;;;8.45;3.40;;;;;;;4.97;94.08;98383.09;5050997;28;20059;-79
2022/01/30 05:48:00;;;;;;;8.13;2.63;;;;;;;4.98;96.50;98392.53;5052419;28;20044;-79
2022/01/30 05:50:26;;;;;;;11.48;3.00;;;;;;;4.82;100.00;98386.38;5051337;28;20032;-79
2022/01/30 05:52:51;;;;;;;5.78;2.80;;;;;;;4.68;100.00;98384.38;5052306;28;20044;-79
2022/01/30 05:55:17;;;;;;;11.35;3.28;;;;;;;4.66;100.00;98420.53;5052501;28;20468;-79
2022/01/30 05:57:42;;;;;;;9.48;2.83;;;;;;;4.61;100.00;98401.00;5050533;28;20021;-79
2022/01/30 06:00:13;;;;;;;10.50;3.50;;;;;;;4.55;100.00;98396.97;5052358;28;20048;-79
2022/01/30 06:02:39;;;;;;;10.55;3.33;;;;;;;4.42;100.00;98380.31;5051175;28;20612;-79
2022/01/30 06:05:06;;;;;;;9.18;2.47;;;;;;;4.50;100.00;98378.25;5052222;28;20075;-79
2022/01/30 06:07:32;;;;;;;10.23;3.38;;;;;;;4.38;100.00;98369.31;5050896;28;20091;-79
2022/01/30 06:09:57;;;;;;;7.30;2.65;;;;;;;4.40;100.00;98371.81;5050726;28;20461;-79
2022/01/30 06:12:23;;;;;;;13.65;3.10;;;;;;;4.47;100.00;98386.13;5052571;28;20033;-79
2022/01/30 06:14:48;;;;;;;11.73;2.80;;;;;;;4.49;100.00;98402.38;5052529;28;20031;-78
2022/01/30 06:17:14;;;;;;;12.52;3.50;;;;;;;4.47;100.00;98393.88;5052003;28;20033;-79
2022/01/30 06:19:40;;;;;;;11.13;3.17;;;;;;;4.42;100.00;98378.56;5052012;28;20048;-79
2022/01/30 06:22:05;;;;;;;6.35;2.95;;;;;;;4.48;100.00;98398.94;5050565;28;20118;-79
2022/01/30 06:24:31;;;;;;;8.07;2.97;;;;;;;4.49;100.00;98415.25;5051930;28;20020;-79
2022/01/30 06:26:56;;;;;;;7.80;2.83;;;;;;;4.47;100.00;98410.19;5050613;28;20103;-78
2022/01/30 06:29:22;;;;;;;9.77;3.08;;;;;;;4.43;100.00;98412.94;5052204;28;20032;-79
2022/01/30 06:31:47;;;;;;;16.42;4.57;;;;;;;4.41;100.00;98396.69;5052047;28;20526;-79
2022/01/30 06:34:12;;;;;;;10.00;3.53;;;;;;;4.34;100.00;98390.97;5050570;28;20032;-79
2022/01/30 06:36:38;;;;;;;10.57;3.75;;;;;;;4.34;100.00;98411.59;5051798;28;20033;-79
2022/01/30 06:39:05;;;;;;;9.60;3.58;;;;;;;4.31;100.00;98387.69;5050295;28;20103;-79
2022/01/30 06:41:31;;;;;;;8.18;3.15;;;;;;;4.25;100.00;98407.63;5052265;28;20029;-79
2022/01/30 06:43:56;;;;;;;12.15;4.07;;;;;;;4.23;100.00;98455.00;5050389;28;20021;-79
2022/01/30 06:46:21;;;;;;;10.73;3.17;;;;;;;4.27;100.00;98461.69;5050665;28;20076;-77
2022/01/30 06:48:47;;;;;;;12.38;3.30;;;;;;;4.27;100.00;98448.81;5051815;28;20461;-76
2022/01/30 06:51:16;;;;;;;13.20;3.67;;;;;;;4.21;100.00;98402.66;5051581;28;20031;-79
2022/01/30 06:53:42;;;;;;;11.75;3.85;;;;;;;4.32;100.00;98415.13;5050391;28;20048;-78
2022/01/30 06:56:07;;;;;;;14.18;4.40;;;;;;;4.24;100.00;98407.69;5051753;28;20033;-81
2022/01/30 06:58:33;;;;;;;12.07;3.53;;;;;;;4.22;100.00;98402.63;5032093;28;20022;-81
2022/01/30 07:00:58;;;;;;;8.60;3.72;;;;;;;4.13;100.00;98387.53;5030364;28;20116;-81
2022/01/30 07:03:25;;;;;;;10.10;3.10;;;;;;;4.14;100.00;98404.66;5031757;28;20514;-81
2022/01/30 07:05:51;;;;;;;10.63;4.38;;;;;;;4.28;100.00;98416.13;5030372;28;20079;-81
2022/01/30 07:08:16;;;;;;;15.73;6.47;;;;;;;4.29;100.00;98434.09;5031172;28;20089;-81
2022/01/30 07:10:42;;;;;;;13.38;4.43;;;;;;;4.34;100.00;98411.59;5017316;28;20018;-82
2022/01/30 07:13:08;;;;;;;15.52;4.25;;;;;;;4.29;100.00;98392.88;5017653;28;20033;-81
2022/01/30 07:15:34;;;;;;;12.20;5.15;;;;;;;4.33;100.00;98406.47;5017982;28;20029;-81
2022/01/30 07:18:00;;;;;;;14.38;4.28;;;;;;;4.40;100.00;98377.81;5017589;28;20484;-81
2022/01/30 07:20:26;;;;;;;5.68;3.17;;;;;;;4.42;100.00;98373.41;5017685;28;20033;-81
2022/01/30 07:22:52;;;;;;;12.35;4.95;;;;;;;4.45;100.00;98380.19;5017446;28;20041;-81
2022/01/30 07:25:17;;;;;;;11.65;4.05;;;;;;;4.46;100.00;98394.75;5035289;28;20025;-81
2022/01/30 07:27:43;;;;;;;12.35;3.30;;;;;;;4.35;100.00;98368.59;5017670;28;20151;-81
2022/01/30 07:30:10;;;;;;;15.23;5.30;;;;;;;4.52;100.00;98380.78;5035100;28;20056;-80
2022/01/30 07:32:36;;;;;;;8.70;3.50;;;;;;;4.56;100.00;98392.66;5032079;28;20045;-81
2022/01/30 07:35:08;;;;;;;15.32;3.60;;;;;;;4.56;100.00;98390.91;5017253;28;20029;-81
2022/01/30 07:37:35;;;;;;;12.77;5.07;;;;;;;4.65;100.00;98400.81;5034820;28;20028;-81
2022/01/30 07:40:03;;;;;;;9.10;4.13;;;;;;;4.56;100.00;98383.16;5017338;28;20440;-81
2022/01/30 07:42:29;;;;;;;12.30;5.05;;;;;;;4.65;100.00;98410.31;5035148;28;20053;-81
2022/01/30 07:44:54;;;;;;;11.50;5.18;;;;;;;4.66;100.00;98402.50;5035132;28;20068;-81
2022/01/30 07:47:22;;;;;;;13.73;6.18;;;;;;;4.55;100.00;98372.91;5017126;28;20033;-81
2022/01/30 07:49:51;;;;;;;13.07;5.15;;;;;;;4.58;100.00;98401.97;4965083;28;20608;-81
2022/01/30 07:52:37;;;;;;;14.57;4.63;;;;;;;4.68;100.00;98408.44;4957731;28;20062;-81
2022/01/30 07:55:05;;;;;;;11.68;4.07;;;;;;;4.65;100.00;98399.97;4934202;29;20108;-81
2022/01/30 07:57:31;;;;;;;8.95;4.38;;;;;;;4.69;100.00;98410.09;4918591;29;20546;-81
2022/01/30 07:59:58;;;;;;;19.00;4.55;;;;;;;4.77;99.61;98394.31;4915684;29;20043;-81
2022/01/30 08:02:27;;;;;;;12.75;4.45;;;;;;;4.65;98.92;98377.59;4878107;29;20246;-81
2022/01/30 08:04:54;;;;;;;11.32;4.10;;;;;;;4.77;98.68;98416.69;4844362;29;20115;-81
2022/01/30 08:07:20;;;;;;;13.82;6.10;;;;;;;4.84;97.80;98407.75;4846748;29;20045;-81
2022/01/30 08:09:45;;;;;;;15.95;4.55;;;;;;;4.91;98.03;98415.16;4878015;29;20136;-81
2022/01/30 08:12:11;;;;;;;13.93;4.97;;;;;;;4.94;97.35;98420.22;4862427;29;20454;-81
2022/01/30 08:14:37;;;;;;;22.50;5.40;;;;;;;5.04;97.61;98433.53;4878054;29;20041;-80
2022/01/30 08:17:03;;;;;;;22.55;9.27;;;;;;;5.07;97.17;98438.56;4862162;29;20087;-81
2022/01/30 08:19:30;;;;;;;18.08;5.43;;;;;;;5.15;95.78;98433.09;4862250;29;20073;-80
2022/01/30 08:21:59;;;;;;;16.83;5.75;;;;;;;5.19;95.74;98421.72;4898098;29;20052;-81
2022/01/30 08:24:25;;;;;;;13.88;6.25;;;;;;;5.20;94.69;98408.72;4897247;29;20458;-81
2022/01/30 08:26:51;;;;;;;19.13;5.43;;;;;;;5.26;94.43;98413.59;4913470;29;20119;-80
2022/01/30 08:29:17;;;;;;;14.95;5.25;;;;;;;5.28;94.30;98429.03;4915209;29;20038;-80
2022/01/30 08:31:42;;;;;;;15.13;4.63;;;;;;;5.31;93.60;98428.91;4932458;29;20074;-81
2022/01/30 08:34:12;;;;;;;11.75;4.38;;;;;;;5.43;92.94;98435.25;4965090;28;20051;-80
2022/01/30 08:36:38;;;;;;;12.68;4.85;;;;;;;5.41;92.89;98437.91;4965072;28;20462;-81
2022/01/30 08:39:04;;;;;;;14.43;4.90;;;;;;;5.38;92.90;98456.13;4956325;28;20423;-80
2022/01/30 08:41:32;;;;;;;13.52;4.75;;;;;;;5.39;93.06;98460.38;4956589;28;20122;-80
2022/01/30 08:44:03;;;;;;;14.30;4.70;;;;;;;5.39;92.42;98449.19;4972595;28;20439;-81
2022/01/30 08:46:37;;;;;;;15.30;4.43;;;;;;;5.34;91.76;98458.91;4940279;28;20097;-81
2022/01/30 08:49:07;;;;;;;11.35;4.22;;;;;;;5.41;91.78;98458.56;4972299;28;20038;-81
2022/01/30 08:51:33;;;;;;;14.20;4.65;;;;;;;5.50;91.65;98472.81;4953000;29;20038;-81
2022/01/30 08:53:58;;;;;;;14.27;6.25;;;;;;;5.50;91.93;98478.81;4953190;28;20503;-80
2022/01/30 08:56:24;;;;;;;20.45;7.35;;;;;;;5.54;91.29;98483.84;4953108;29;20035;-81
2022/01/30 08:58:49;;;;;;;14.10;5.95;;;;;;;5.60;91.29;98491.31;4953003;29;20047;-81
2022/01/30 09:01:15;;;;;;;21.30;9.65;;;;;;;5.61;91.77;98505.94;4952782;29;20035;-81
2022/01/30 09:03:43;;;;;;;16.45;6.72;;;;;;;5.40;91.66;98503.38;4936967;29;20467;-80
2022/01/30 09:06:09;;;;;;;15.13;4.72;;;;;;;5.44;91.75;98493.75;4952772;29;20047;-81
2022/01/30 09:08:35;;;;;;;17.70;5.30;;;;;;;5.42;91.41;98486.06;4964942;28;20466;-80
2022/01/30 09:11:01;;;;;;;13.90;4.55;;;;;;;5.50;92.21;98490.88;4952435;28;20054;-80
2022/01/30 09:13:26;;;;;;;24.67;7.05;;;;;;;5.43;92.91;98494.66;4936622;29;20042;-80
2022/01/30 09:15:59;;;;;;;23.20;9.40;;;;;;;5.44;93.43;98493.75;4952776;29;20042;-81
2022/01/30 09:18:27;;;;;;;20.33;7.10;;;;;;;5.45;94.13;98518.66;4936582;29;20031;-81
2022/01/30 09:20:54;;;;;;;17.60;6.43;;;;;;;5.40;94.61;98499.97;4936490;29;20040;-81
2022/01/30 09:23:20;;;;;;;17.00;4.93;;;;;;;5.37;94.04;98489.75;4952284;29;20118;-81
2022/01/30 09:25:47;;;;;;;17.38;6.35;;;;;;;5.51;95.17;98542.47;4936485;29;20531;-81
2022/01/30 09:28:14;;;;;;;20.17;6.53;;;;;;;5.44;96.47;98553.16;4920366;29;20050;-81
2022/01/30 09:30:40;;;;;;;14.63;4.95;;;;;;;5.42;97.89;98565.28;4952509;29;20039;-81
2022/01/30 09:33:06;;;;;;;15.73;6.10;;;;;;;5.30;99.40;98599.34;4951244;28;20050;-81
2022/01/30 09:35:32;;;;;;;17.33;5.45;;;;;;;5.17;100.00;98597.28;4962784;28;20039;-81
2022/01/30 09:38:05;;;;;;;21.38;4.97;;;;;;;5.05;100.00;98604.69;4971667;28;20223;-81
2022/01/30 09:40:31;;;;;;;11.75;6.38;;;;;;;4.87;100.00;98586.47;4955409;28;20042;-80
2022/01/30 09:42:58;;;;;;;16.75;4.88;;;;;;;4.68;100.00;98599.28;5010409;28;20042;-81
2022/01/30 09:45:27;;;;;;;21.23;5.57;;;;;;;4.61;100.00;98640.84;5032579;28;20119;-79
2022/01/30 09:48:08;;;;;;;19.23;6.47;;;;;;;4.38;100.00;98610.78;5023897;28;20192;-79
2022/01/30 09:50:35;;;;;;;16.58;6.03;;;;;;;4.38;100.00;98636.56;4998457;28;20029;-79
2022/01/30 09:53:00;;;;;;;19.65;6.90;;;;;;;4.31;100.00;98625.66;4990676;28;20049;-79
2022/01/30 09:55:27;;;;;;;24.27;7.25;;;;;;;4.33;100.00;98631.56;4990909;28;20076;-79
2022/01/30 09:57:53;;;;;;;22.67;7.03;;;;;;;4.23;100.00;98633.66;4988281;28;20046;-79
2022/01/30 10:00:20;;;;;;;15.73;5.40;;;;;;;4.21;100.00;98642.34;4990505;28;20180;-79
2022/01/30 10:02:46;;;;;;;20.40;7.07;;;;;;;4.12;100.00;98620.31;4989526;28;20046;-79
2022/01/30 10:05:13;;;;;;;21.60;7.65;;;;;;;4.13;100.00;98647.78;4990354;28;20490;-80
2022/01/30 10:07:45;;;;;;;16.58;7.70;;;;;;;4.23;100.00;98666.34;4958503;28;20056;-80
2022/01/30 10:10:17;;;;;;;27.73;11.18;;;;;;;4.16;100.00;98634.78;4990298;28;20061;-80
2022/01/30 10:13:11;;;;;;;26.67;8.73;;;;;;;4.38;100.00;98663.19;4974338;28;20104;-80
2022/01/30 10:15:56;;;;;;;19.88;7.45;;;;;;;4.36;100.00;98644.34;4932555;29;20035;-80
2022/01/30 10:18:23;;;;;;;27.73;11.80;;;;;;;4.53;100.00;98648.88;4931269;29;20523;-80
2022/01/30 10:20:49;;;;;;;21.33;8.70;;;;;;;4.71;100.00;98662.78;4932423;29;20052;-80
2022/01/30 10:23:15;;;;;;;40.25;16.10;;;;;;;4.74;100.00;98660.94;4939264;28;20543;-80
2022/01/30 10:25:53;;;;;;;34.80;14.48;;;;;;;4.85;100.00;98655.38;4970970;28;20046;-80
2022/01/30 10:28:28;;;;;;;21.15;7.95;;;;;;;4.80;100.00;98654.69;4970392;28;20039;-80
2022/01/30 10:30:56;;;;;;;24.55;9.82;;;;;;;4.85;100.00;98659.69;4968781;28;20049;-80
2022/01/30 10:33:36;;;;;;;20.88;8.70;;;;;;;4.92;100.00;98653.38;4970626;28;20117;-80
2022/01/30 10:36:03;;;;;;;21.50;8.25;;;;;;;4.86;100.00;98639.00;4970761;28;20379;-80
2022/01/30 10:38:37;;;;;;;20.45;7.38;;;;;;;4.89;100.00;98672.41;4987970;28;20496;-80
2022/01/30 10:41:17;;;;;;;20.10;8.07;;;;;;;4.83;100.00;98656.31;5009751;28;20040;-80
2022/01/30 10:44:01;;;;;;;19.10;6.80;;;;;;;4.69;100.00;98643.97;5009587;28;20058;-80
2022/01/30 10:46:36;;;;;;;33.97;13.32;;;;;;;4.69;100.00;98654.28;5009625;28;20038;-80
2022/01/30 10:49:07;;;;;;;27.13;9.60;;;;;;;4.72;100.00;98672.25;5009585;28;20076;-80
2022/01/30 10:51:33;;;;;;;54.35;27.95;;;;;;;4.60;100.00;98634.84;5016511;28;20040;-80
2022/01/30 10:54:06;;;;;;;34.03;16.70;;;;;;;4.62;100.00;98663.16;5051887;28;20488;-79
2022/01/30 10:56:32;;;;;;;47.80;22.80;;;;;;;4.61;100.00;98656.31;5050522;28;20029;-79
2022/01/30 10:59:20;;;;;;;53.08;26.80;;;;;;;4.60;100.00;98662.38;5049444;28;20066;-80
2022/01/30 11:01:48;;;;;;;37.03;13.02;;;;;;;4.51;100.00;98645.53;5050596;28;20384;-80
2022/01/30 11:04:23;;;;;;;56.50;21.95;;;;;;;4.42;100.00;98641.53;5051532;28;20053;-80
2022/01/30 11:06:49;;;;;;;42.47;15.05;;;;;;;4.56;100.00;98658.25;5051701;28;20473;-80
2022/01/30 11:09:20;;;;;;;26.15;10.43;;;;;;;4.59;100.00;98669.25;5036143;28;20050;-80
2022/01/30 11:11:53;;;;;;;32.03;11.77;;;;;;;4.54;100.00;98671.19;5031644;28;20100;-79
2022/01/30 11:14:23;;;;;;;32.55;10.68;;;;;;;4.37;100.00;98624.56;5031601;28;20033;-80
2022/01/30 11:16:57;;;;;;;41.80;12.20;;;;;;;4.56;100.00;98677.13;5014050;28;20026;-80
2022/01/30 11:19:24;;;;;;;27.80;10.15;;;;;;;4.57;100.00;98686.53;5013637;28;20057;-80
2022/01/30 11:22:00;;;;;;;43.90;16.90;;;;;;;4.65;100.00;98692.25;5031668;28;20022;-80
2022/01/30 11:24:26;;;;;;;24.05;10.88;;;;;;;4.65;100.00;98676.78;5031224;28;20030;-80
2022/01/30 11:26:53;;;;;;;21.95;7.90;;;;;;;4.57;100.00;98683.97;5011067;28;20596;-80
2022/01/30 11:29:20;;;;;;;26.02;8.88;;;;;;;4.72;100.00;98718.66;4999642;28;20053;-80
2022/01/30 11:31:47;;;;;;;22.83;8.43;;;;;;;4.75;100.00;98726.25;5003737;28;20416;-80
2022/01/30 11:34:13;;;;;;;22.92;9.27;;;;;;;4.74;100.00;98717.69;5011519;28;20099;-80
2022/01/30 11:36:44;;;;;;;42.15;14.40;;;;;;;4.80;100.00;98734.66;4993983;28;20113;-80
2022/01/30 11:39:13;;;;;;;;;;;;;;;4.83;100.00;98736.31;4994195;28;20033;-80
2022/01/30 11:41:39;;;;;;;21.00;8.50;;;;;;;4.70;100.00;98718.69;5011638;28;20381;-80
2022/01/30 11:44:17;;;;;;;28.45;8.80;;;;;;;4.75;100.00;98729.69;4994126;28;20516;-80
2022/01/30 11:47:03;;;;;;;21.25;6.65;;;;;;;4.86;100.00;98747.34;4994089;28;20026;-80
2022/01/30 11:49:42;;;;;;;23.75;8.13;;;;;;;4.93;100.00;98732.47;4915414;29;20412;-80
2022/01/30 11:52:10;;;;;;;23.35;9.32;;;;;;;4.92;100.00;98746.28;4931493;29;20050;-80
2022/01/30 11:54:57;;;;;;;25.55;7.50;;;;;;;4.98;100.00;98753.78;4931654;29;20040;-80
2022/01/30 11:57:25;;;;;;;22.55;7.75;;;;;;;5.03;100.00;98736.38;4934908;29;20039;-80
2022/01/30 11:59:55;;;;;;;21.77;6.97;;;;;;;5.02;100.00;98751.94;4934984;29;20028;-80
2022/01/30 12:02:24;;;;;;;21.88;6.80;;;;;;;5.00;100.00;98762.31;4935094;29;20048;-80
2022/01/30 12:04:52;;;;;;;20.35;7.55;;;;;;;4.99;100.00;98755.47;4934917;29;20032;-80
2022/01/30 12:07:34;;;;;;;23.13;7.95;;;;;;;4.87;100.00;98750.78;4934651;29;20599;-80
2022/01/30 12:10:21;;;;;;;20.65;5.95;;;;;;;4.96;100.00;98761.56;4934798;29;20479;-81
2022/01/30 12:13:01;;;;;;;21.77;6.68;;;;;;;4.93;100.00;98759.13;4945242;29;20494;-80
2022/01/30 12:15:40;;;;;;;26.02;8.93;;;;;;;4.98;100.00;98780.44;4952755;29;20031;-80
2022/01/30 12:18:10;;;;;;;20.17;8.60;;;;;;;4.97;99.67;98778.75;4952939;29;20042;-81
2022/01/30 12:21:11;;;;;;;23.33;7.47;;;;;;;5.03;99.08;98782.84;4952889;29;20054;-80
2022/01/30 12:23:42;;;;;;;23.20;8.98;;;;;;;4.96;99.54;98774.47;4953100;29;20031;-80
2022/01/30 12:26:10;;;;;;;24.92;8.93;;;;;;;5.00;99.61;98796.69;4971355;28;20555;-80
2022/01/30 12:28:44;;;;;;;21.45;7.07;;;;;;;5.03;98.91;98767.34;4996804;28;20040;-80
2022/01/30 12:31:31;;;;;;;23.90;6.78;;;;;;;5.08;98.52;98785.25;4996466;28;20040;-80
2022/01/30 12:34:16;;;;;;;18.70;6.63;;;;;;;5.05;99.01;98796.50;4996841;28;20433;-81